Time;durP1;ratioP1;P1;durP2;ratioP2;P2;SDS_P1;SDS_P2;PMS_P1;PMS_P2;Temp;Humidity;BMP_temperature;BMP_pressure;BME280_temperature;BME280_humidity;BME280_pressure;Samples;Min_cycle;Max_cycle;Signal;HPM_P1;HPM_P2
2021/06/17 00:01:32;;;;;;;25.62;11.55;;;;;;;14.93;73.42;99277.35;2084358;85;21476;-72
2021/06/17 00:04:33;;;;;;;23.45;9.15;;;;;;;14.85;72.74;99278.38;2083932;85;21041;-64
2021/06/17 00:07:33;;;;;;;21.97;10.03;;;;;;;14.87;72.48;99279.13;2084281;85;21059;-65
2021/06/17 00:10:34;;;;;;;22.40;7.22;;;;;;;14.84;72.56;99281.95;2084435;85;21026;-73
2021/06/17 00:13:36;;;;;;;23.27;11.97;;;;;;;14.79;72.56;99280.97;2084362;85;20977;-64
2021/06/17 00:16:37;;;;;;;;;;;;;;;14.78;72.56;99280.59;2086816;85;20993;-72
2021/06/17 00:19:37;;;;;;;24.98;11.35;;;;;;;14.67;72.94;99284.50;2084338;84;20111;-64
2021/06/17 00:22:37;;;;;;;26.52;12.82;;;;;;;14.55;73.00;99277.78;2084143;84;21068;-64
2021/06/17 00:25:38;;;;;;;25.00;10.85;;;;;;;14.52;73.50;99279.77;2084493;85;21013;-64
2021/06/17 00:28:38;;;;;;;24.85;12.88;;;;;;;14.52;73.43;99279.32;2084391;85;21009;-72
2021/06/17 00:31:39;;;;;;;28.23;13.03;;;;;;;14.43;73.23;99282.59;2083919;85;21599;-73
2021/06/17 00:34:40;;;;;;;29.07;13.80;;;;;;;14.36;73.34;99281.33;2084219;85;20993;-72
2021/06/17 00:37:40;;;;;;;30.20;14.63;;;;;;;14.31;73.63;99286.93;2084261;85;20975;-64
2021/06/17 00:40:41;;;;;;;32.55;14.55;;;;;;;14.30;73.69;99285.23;2084535;85;20962;-66
2021/06/17 00:43:41;;;;;;;34.43;16.82;;;;;;;14.31;73.82;99283.42;2084218;85;21001;-63
2021/06/17 00:46:42;;;;;;;30.85;15.98;;;;;;;14.33;74.01;99284.18;2084471;85;20997;-64
2021/06/17 00:49:42;;;;;;;31.27;17.25;;;;;;;14.33;74.30;99280.22;2084232;85;21472;-73
2021/06/17 00:52:44;;;;;;;28.38;14.68;;;;;;;14.32;74.21;99282.48;2084203;85;20987;-64
2021/06/17 00:55:44;;;;;;;16.23;5.20;;;;;;;14.40;74.15;99289.40;2084626;85;21055;-73
2021/06/17 00:58:45;;;;;;;17.90;5.60;;;;;;;14.35;73.33;99290.19;2084275;85;21286;-64
2021/06/17 01:01:45;;;;;;;20.02;8.03;;;;;;;14.15;73.31;99294.19;2084376;85;21024;-64
2021/06/17 01:04:45;;;;;;;43.78;8.08;;;;;;;13.99;73.34;99293.08;2084248;85;21491;-65
2021/06/17 01:07:46;;;;;;;40.75;8.05;;;;;;;13.82;73.73;99295.06;2083895;85;21048;-64
2021/06/17 01:10:47;;;;;;;19.60;7.90;;;;;;;13.72;74.34;99291.81;2084225;85;21040;-73
2021/06/17 01:13:47;;;;;;;18.92;7.95;;;;;;;13.67;74.68;99286.86;2084411;85;21013;-63
2021/06/17 01:16:47;;;;;;;23.42;11.22;;;;;;;13.69;74.88;99291.54;2084455;85;21005;-64
2021/06/17 01:19:48;;;;;;;25.05;11.75;;;;;;;13.64;74.98;99283.11;2084233;85;21005;-65
2021/06/17 01:22:49;;;;;;;21.65;10.00;;;;;;;13.63;75.28;99286.23;2098107;85;21583;-64
2021/06/17 01:25:49;;;;;;;23.22;10.45;;;;;;;13.63;75.40;99291.50;2102709;84;21053;-64
2021/06/17 01:28:50;;;;;;;25.32;12.30;;;;;;;13.64;74.99;99283.11;2102845;85;21005;-64
2021/06/17 01:31:50;;;;;;;26.37;12.73;;;;;;;13.65;75.03;99280.38;2102960;85;21072;-64
2021/06/17 01:34:50;;;;;;;26.30;12.63;;;;;;;13.67;74.94;99287.69;2102987;84;21468;-73
2021/06/17 01:37:51;;;;;;;28.12;14.23;;;;;;;13.66;74.80;99279.89;2102955;85;21072;-63
2021/06/17 01:40:51;;;;;;;26.45;13.53;;;;;;;13.72;75.26;99285.23;2102882;84;20993;-64
2021/06/17 01:43:52;;;;;;;26.20;12.28;;;;;;;13.77;75.24;99284.45;2102976;84;21000;-73
2021/06/17 01:46:52;;;;;;;26.73;13.50;;;;;;;13.71;75.21;99285.71;2103074;85;20961;-63
2021/06/17 01:49:53;;;;;;;25.50;12.05;;;;;;;13.61;75.23;99280.69;2103008;84;21098;-64
2021/06/17 01:52:53;;;;;;;25.02;12.43;;;;;;;13.53;75.49;99286.45;2102934;85;20980;-63
2021/06/17 01:55:53;;;;;;;26.93;15.30;;;;;;;13.49;75.19;99286.30;2103005;84;21579;-66
2021/06/17 01:58:54;;;;;;;32.45;16.50;;;;;;;13.49;75.49;99285.81;2102928;85;21029;-64
2021/06/17 02:01:54;;;;;;;29.70;15.95;;;;;;;13.51;75.62;99285.23;2103001;84;21053;-63
2021/06/17 02:04:55;;;;;;;29.50;14.90;;;;;;;13.54;75.81;99284.67;2102979;84;21033;-63
2021/06/17 02:07:55;;;;;;;29.75;14.45;;;;;;;13.54;75.86;99283.36;2103090;84;21076;-63
2021/06/17 02:10:56;;;;;;;24.07;11.28;;;;;;;13.51;75.64;99286.55;2102967;85;20981;-73
2021/06/17 02:13:56;;;;;;;22.10;10.60;;;;;;;13.48;75.62;99284.60;2102965;84;21065;-67
2021/06/17 02:16:56;;;;;;;15.83;5.17;;;;;;;13.41;75.47;99284.63;2102755;84;21585;-74
2021/06/17 02:19:57;;;;;;;23.52;11.08;;;;;;;13.33;75.54;99287.72;2102887;84;21077;-73
2021/06/17 02:22:57;;;;;;;20.97;9.65;;;;;;;13.26;76.40;99285.97;2088754;85;21048;-70
2021/06/17 02:25:58;;;;;;;24.75;9.43;;;;;;;13.14;76.24;99288.90;2084411;85;20993;-64
2021/06/17 02:28:59;;;;;;;21.00;10.13;;;;;;;13.12;76.47;99286.85;2070287;86;21070;-63
2021/06/17 02:31:59;;;;;;;24.65;12.05;;;;;;;13.13;76.94;99284.60;2096522;85;21519;-67
2021/06/17 02:35:00;;;;;;;22.42;10.08;;;;;;;13.18;76.92;99281.18;2096319;85;21470;-63
2021/06/17 02:38:00;;;;;;;23.30;11.55;;;;;;;13.20;76.41;99279.77;2096382;85;21012;-63
2021/06/17 02:41:01;;;;;;;19.17;8.43;;;;;;;13.18;76.41;99277.23;2096491;85;21087;-63
2021/06/17 02:44:01;;;;;;;19.40;7.90;;;;;;;13.22;76.28;99281.02;2096422;85;21087;-63
2021/06/17 02:47:01;;;;;;;18.37;6.97;;;;;;;13.13;76.30;99285.92;2096376;85;21039;-74
2021/06/17 02:50:02;;;;;;;23.92;11.43;;;;;;;13.10;76.57;99286.12;2096197;85;21025;-63
2021/06/17 02:53:02;;;;;;;34.13;8.18;;;;;;;13.01;77.15;99285.37;2096317;85;21461;-74
2021/06/17 02:56:03;;;;;;;27.15;10.90;;;;;;;12.96;77.31;99284.84;2096334;85;21020;-74
2021/06/17 02:59:04;;;;;;;26.73;15.55;;;;;;;13.00;77.49;99291.13;2096357;85;20988;-74
2021/06/17 03:02:04;;;;;;;25.97;13.40;;;;;;;13.10;77.71;99291.84;2096594;85;20976;-63
2021/06/17 03:05:04;;;;;;;25.00;13.15;;;;;;;13.23;77.83;99291.89;2096459;85;21003;-63
2021/06/17 03:08:05;;;;;;;28.87;15.10;;;;;;;13.34;77.87;99298.19;2096443;85;20996;-63
2021/06/17 03:11:05;;;;;;;28.30;14.70;;;;;;;13.46;77.49;99296.56;2096473;85;21594;-75
2021/06/17 03:14:06;;;;;;;32.35;18.37;;;;;;;13.61;77.20;99301.77;2096251;85;21031;-63
2021/06/17 03:17:06;;;;;;;32.65;17.30;;;;;;;13.78;77.43;99299.34;2096480;85;21326;-63
2021/06/17 03:20:07;;;;;;;33.50;18.52;;;;;;;13.93;77.22;99293.02;2096338;85;21011;-63
2021/06/17 03:23:08;;;;;;;33.45;20.10;;;;;;;14.06;76.98;99293.52;2096594;85;21076;-63
2021/06/17 03:26:08;;;;;;;33.60;19.10;;;;;;;14.18;76.73;99295.33;2096638;85;21458;-63
2021/06/17 03:29:11;;;;;;;33.48;16.15;;;;;;;14.35;76.99;99296.78;2096586;85;21494;-74
2021/06/17 03:32:11;;;;;;;;;;;;;;;14.50;76.80;99298.84;2079791;85;20969;-63
2021/06/17 03:35:11;;;;;;;26.23;13.93;;;;;;;14.63;76.30;99294.91;2104958;85;20430;-63
2021/06/17 03:38:12;;;;;;;27.00;13.78;;;;;;;14.78;76.04;99305.68;2104849;84;21016;-64
2021/06/17 03:41:12;;;;;;;25.52;12.98;;;;;;;14.93;75.85;99294.52;2104949;84;21108;-63
2021/06/17 03:44:13;;;;;;;27.25;15.18;;;;;;;15.04;75.38;99298.56;2104916;85;21000;-64
2021/06/17 03:47:13;;;;;;;30.37;16.30;;;;;;;15.27;75.33;99295.19;2104943;84;21120;-75
2021/06/17 03:50:14;;;;;;;30.00;16.15;;;;;;;15.50;75.14;99300.97;2104641;85;21033;-76
2021/06/17 03:53:15;;;;;;;29.90;15.60;;;;;;;15.70;75.05;99299.48;2104800;85;20993;-63
2021/06/17 03:56:15;;;;;;;27.35;14.83;;;;;;;15.88;74.88;99301.25;2104950;85;21081;-63
2021/06/17 03:59:16;;;;;;;28.62;15.28;;;;;;;16.03;74.61;99301.91;2105208;84;20992;-76
2021/06/17 04:02:16;;;;;;;28.23;15.43;;;;;;;16.15;74.54;99296.14;2104824;84;21044;-63
2021/06/17 04:05:17;;;;;;;29.90;15.83;;;;;;;16.33;74.78;99294.36;2104941;85;21096;-76
2021/06/17 04:08:19;;;;;;;33.10;16.97;;;;;;;16.50;74.46;99300.50;2104687;85;22099;-64
2021/06/17 04:11:19;;;;;;;;;;;;;;;16.63;74.54;99297.73;2107468;84;20973;-63
2021/06/17 04:14:20;;;;;;;33.28;18.37;;;;;;;16.79;74.90;99300.87;2104889;85;20389;-63
2021/06/17 04:17:20;;;;;;;30.50;17.10;;;;;;;17.00;74.46;99301.47;2104803;84;20969;-63
2021/06/17 04:20:21;;;;;;;29.15;16.17;;;;;;;17.23;74.76;99300.94;2105149;84;21045;-63
2021/06/17 04:23:21;;;;;;;29.40;15.85;;;;;;;17.61;74.80;99296.11;2098536;84;21055;-77
2021/06/17 04:26:21;;;;;;;29.63;16.17;;;;;;;17.99;74.50;99294.26;2095399;85;21025;-64
2021/06/17 04:29:22;;;;;;;31.52;15.72;;;;;;;18.42;74.10;99287.56;2095333;85;21111;-75
2021/06/17 04:32:22;;;;;;;29.10;14.98;;;;;;;18.81;73.53;99287.24;2095256;85;21507;-63
2021/06/17 04:35:23;;;;;;;28.98;15.05;;;;;;;19.12;72.94;99280.58;2095260;85;21456;-64
2021/06/17 04:38:23;;;;;;;28.57;14.33;;;;;;;19.42;72.78;99280.09;2094971;85;21041;-64
2021/06/17 04:41:24;;;;;;;25.93;13.90;;;;;;;19.67;72.21;99285.36;2095200;85;21037;-64
2021/06/17 04:44:25;;;;;;;28.55;13.53;;;;;;;19.94;71.51;99290.50;2095344;85;21040;-64
2021/06/17 04:47:25;;;;;;;27.77;13.65;;;;;;;20.17;70.87;99287.48;2095334;85;21476;-64
2021/06/17 04:50:26;;;;;;;27.60;13.75;;;;;;;20.37;70.60;99287.80;2095355;85;21034;-64
2021/06/17 04:53:26;;;;;;;26.57;12.25;;;;;;;20.58;69.71;99284.89;2095473;85;21016;-64
2021/06/17 04:56:27;;;;;;;25.95;12.15;;;;;;;20.82;69.64;99288.08;2095339;85;21032;-64
2021/06/17 04:59:28;;;;;;;25.57;11.78;;;;;;;21.07;69.03;99291.84;2095218;85;21048;-67
2021/06/17 05:02:29;;;;;;;24.87;11.55;;;;;;;21.24;67.89;99292.86;2095463;85;21047;-65
2021/06/17 05:05:29;;;;;;;23.05;12.20;;;;;;;21.46;68.66;99295.09;2095395;85;21562;-64
2021/06/17 05:11:32;;;;;;;23.62;11.45;;;;;;;21.94;67.60;99294.86;2068392;85;20993;-64
2021/06/17 05:14:34;;;;;;;26.23;12.10;;;;;;;22.18;66.39;99298.69;2095597;85;21001;-64
2021/06/17 05:17:35;;;;;;;;;;;;;;;22.33;66.48;99299.83;2097693;85;21028;-65
2021/06/17 05:20:35;;;;;;;24.32;11.88;;;;;;;22.54;65.14;99298.59;2095326;85;20379;-80
2021/06/17 05:23:36;;;;;;;23.55;10.85;;;;;;;22.73;65.81;99296.17;2095175;84;20985;-81
2021/06/17 05:26:36;;;;;;;25.77;11.20;;;;;;;22.99;64.48;99289.44;2095444;85;20980;-64
2021/06/17 05:29:36;;;;;;;23.57;11.17;;;;;;;23.15;64.22;99294.85;2095437;85;21067;-81
2021/06/17 05:32:37;;;;;;;24.90;11.17;;;;;;;23.26;63.20;99292.86;2095469;85;21057;-72
2021/06/17 05:35:37;;;;;;;23.87;10.83;;;;;;;23.45;63.14;99286.39;2095523;85;20997;-65
2021/06/17 05:38:38;;;;;;;24.57;10.47;;;;;;;23.63;62.69;99288.42;2095673;85;21028;-66
2021/06/17 05:41:38;;;;;;;24.57;10.13;;;;;;;23.83;62.29;99292.09;2095523;85;21105;-65
2021/06/17 05:44:39;;;;;;;25.00;10.43;;;;;;;24.07;62.39;99295.28;2095486;85;20988;-66
2021/06/17 05:47:39;;;;;;;23.63;9.63;;;;;;;24.25;61.32;99295.11;2095541;85;21523;-65
2021/06/17 05:50:40;;;;;;;22.53;9.97;;;;;;;24.37;59.93;99289.70;2095523;85;20989;-65
2021/06/17 05:53:40;;;;;;;23.87;11.13;;;;;;;24.51;60.50;99298.88;2095404;85;20961;-81
2021/06/17 05:56:40;;;;;;;22.07;8.80;;;;;;;24.70;59.70;99307.58;2095433;85;20985;-80
2021/06/17 05:59:41;;;;;;;25.10;9.10;;;;;;;24.77;58.24;99308.55;2095235;85;21068;-65
2021/06/17 06:02:41;;;;;;;21.23;9.17;;;;;;;24.95;58.59;99314.17;2095568;85;21072;-65
2021/06/17 06:05:42;;;;;;;22.43;8.57;;;;;;;25.05;57.68;99310.25;2095525;85;21000;-66
2021/06/17 06:08:42;;;;;;;23.90;9.43;;;;;;;25.19;57.53;99321.27;2095513;85;21040;-65
2021/06/17 06:11:43;;;;;;;20.33;8.90;;;;;;;25.32;57.11;99311.33;2095408;85;21033;-65
2021/06/17 06:14:43;;;;;;;25.10;8.90;;;;;;;25.46;56.73;99318.62;2095408;85;21503;-64
2021/06/17 06:17:44;;;;;;;24.73;9.27;;;;;;;25.53;55.09;99322.27;2095411;85;20997;-65
2021/06/17 06:20:44;;;;;;;21.97;8.40;;;;;;;25.58;55.48;99323.89;2095367;85;21095;-67
2021/06/17 06:23:45;;;;;;;23.43;9.00;;;;;;;25.73;55.61;99328.48;2101170;84;21027;-63
2021/06/17 06:26:45;;;;;;;24.80;8.97;;;;;;;25.97;55.90;99333.34;2104995;85;21040;-64
2021/06/17 06:29:46;;;;;;;20.87;8.60;;;;;;;26.22;54.77;99338.01;2070548;86;21063;-63
2021/06/17 06:32:46;;;;;;;22.17;8.80;;;;;;;26.44;54.16;99335.77;2096726;85;21016;-64
2021/06/17 06:35:47;;;;;;;21.00;8.07;;;;;;;26.62;54.16;99336.77;2096615;85;21505;-64
2021/06/17 06:38:47;;;;;;;20.73;8.33;;;;;;;26.67;53.60;99340.25;2096624;85;21019;-64
2021/06/17 06:41:48;;;;;;;20.97;8.20;;;;;;;26.80;52.23;99336.94;2096628;85;20984;-65
2021/06/17 06:44:49;;;;;;;21.17;8.48;;;;;;;26.99;50.09;99338.73;2096595;85;21064;-64
2021/06/17 06:47:51;;;;;;;20.45;8.18;;;;;;;27.02;48.89;99339.70;2096457;85;21049;-64
2021/06/17 06:50:52;;;;;;;22.90;8.03;;;;;;;27.05;50.50;99338.83;2096476;85;21083;-64
2021/06/17 06:53:52;;;;;;;23.03;7.80;;;;;;;27.15;50.31;99347.92;2096519;85;21024;-64
2021/06/17 06:56:53;;;;;;;22.87;8.10;;;;;;;27.30;49.75;99351.43;2096425;85;21001;-63
2021/06/17 06:59:53;;;;;;;22.60;8.23;;;;;;;27.44;49.66;99343.03;2096819;85;21056;-64
2021/06/17 07:02:54;;;;;;;20.47;7.97;;;;;;;27.61;49.43;99342.28;2097124;85;20961;-64
2021/06/17 07:05:54;;;;;;;22.07;8.13;;;;;;;27.80;48.23;99334.55;2097034;85;20971;-64
2021/06/17 07:08:54;;;;;;;20.33;8.10;;;;;;;27.97;48.13;99337.81;2096999;85;21001;-64
2021/06/17 07:11:55;;;;;;;22.07;8.03;;;;;;;28.09;48.67;99347.61;2096377;85;21025;-64
2021/06/17 07:14:58;;;;;;;19.40;7.87;;;;;;;28.27;48.21;99337.67;2096824;85;21020;-64
2021/06/17 07:17:58;;;;;;;20.30;7.40;;;;;;;28.33;48.13;99349.88;2077181;85;21679;-65
2021/06/17 07:20:59;;;;;;;19.80;7.63;;;;;;;28.42;46.73;99351.08;2096691;85;21588;-64
2021/06/17 07:23:59;;;;;;;22.50;7.60;;;;;;;28.37;46.37;99349.47;2095541;85;21547;-64
2021/06/17 07:27:00;;;;;;;19.87;7.83;;;;;;;28.44;47.05;99351.70;2095220;85;21025;-64
2021/06/17 07:30:00;;;;;;;23.55;7.65;;;;;;;28.50;46.24;99350.91;2095340;85;21014;-64
2021/06/17 07:33:01;;;;;;;21.13;8.30;;;;;;;28.52;46.24;99352.38;2095341;85;21041;-64
2021/06/17 07:36:01;;;;;;;21.45;8.10;;;;;;;28.67;44.96;99355.51;2095241;85;21006;-65
2021/06/17 07:39:02;;;;;;;20.53;8.03;;;;;;;28.84;45.38;99355.50;2095371;85;20962;-64
2021/06/17 07:42:03;;;;;;;21.87;8.68;;;;;;;28.94;45.00;99358.36;2095247;84;21041;-64
2021/06/17 07:45:03;;;;;;;23.00;8.83;;;;;;;28.94;44.79;99349.73;2095252;85;21465;-76
2021/06/17 07:48:04;;;;;;;21.47;8.17;;;;;;;28.96;44.12;99338.73;2095144;85;21069;-71
2021/06/17 07:51:04;;;;;;;21.97;8.03;;;;;;;29.03;44.07;99345.00;2095219;85;21037;-64
2021/06/17 07:54:05;;;;;;;22.17;7.97;;;;;;;29.19;43.89;99353.27;2095454;84;20989;-64
2021/06/17 07:57:05;;;;;;;21.53;7.90;;;;;;;29.25;44.91;99355.70;2095459;84;20970;-64
2021/06/17 08:00:06;;;;;;;23.57;8.50;;;;;;;29.40;43.23;99346.93;2095466;85;21001;-65
2021/06/17 08:03:08;;;;;;;19.03;7.93;;;;;;;29.49;44.38;99349.75;2095324;85;20982;-65
2021/06/17 08:06:08;;;;;;;21.85;8.58;;;;;;;29.67;43.53;99346.47;2095004;84;20982;-65
2021/06/17 08:09:09;;;;;;;20.40;7.77;;;;;;;29.83;42.80;99347.97;2095168;85;21500;-65
2021/06/17 08:12:09;;;;;;;24.17;7.53;;;;;;;29.93;42.76;99354.86;2095177;84;20998;-65
2021/06/17 08:15:10;;;;;;;21.40;7.60;;;;;;;30.02;42.72;99356.31;2095142;85;21041;-64
2021/06/17 08:18:11;;;;;;;20.67;7.90;;;;;;;30.00;42.59;99360.58;2095202;85;21487;-76
2021/06/17 08:21:11;;;;;;;21.27;7.35;;;;;;;30.10;41.80;99359.31;2095209;85;20990;-65
2021/06/17 08:24:15;;;;;;;19.25;7.87;;;;;;;30.19;41.11;99355.38;2096148;83;21012;-65
2021/06/17 08:27:15;;;;;;;20.27;7.72;;;;;;;30.12;41.59;99359.42;2096462;85;21004;-79
2021/06/17 08:30:18;;;;;;;19.70;7.65;;;;;;;30.06;40.70;99360.27;2096306;85;21080;-66
2021/06/17 08:33:18;;;;;;;22.13;7.58;;;;;;;29.77;39.52;99354.68;2096537;85;21129;-67
2021/06/17 08:36:19;;;;;;;20.03;6.80;;;;;;;29.77;42.61;99367.70;2096829;85;21531;-66
2021/06/17 08:39:19;;;;;;;21.07;8.10;;;;;;;30.20;40.92;99357.05;2096733;85;20980;-77
2021/06/17 08:42:20;;;;;;;22.73;8.03;;;;;;;30.46;40.07;99357.57;2096408;85;21021;-66
2021/06/17 08:45:20;;;;;;;19.63;7.57;;;;;;;30.09;39.75;99357.14;2096695;85;20976;-67
2021/06/17 08:48:20;;;;;;;19.77;6.73;;;;;;;30.28;40.95;99356.81;2096642;85;21043;-66
2021/06/17 08:51:21;;;;;;;20.70;6.90;;;;;;;30.65;39.09;99342.86;2096697;85;20989;-66
2021/06/17 08:54:24;;;;;;;19.27;6.87;;;;;;;30.62;38.65;99354.94;2096895;85;20980;-66
2021/06/17 08:57:24;;;;;;;18.20;6.70;;;;;;;30.02;39.37;99356.31;2077145;85;21495;-66
2021/06/17 09:00:24;;;;;;;21.40;6.80;;;;;;;30.24;40.54;99364.53;2096756;85;21060;-66
2021/06/17 09:03:25;;;;;;;24.40;7.57;;;;;;;30.86;38.93;99365.60;2096892;85;21004;-67
2021/06/17 09:06:25;;;;;;;18.55;7.12;;;;;;;31.43;38.49;99371.73;2096771;85;20969;-67
2021/06/17 09:09:25;;;;;;;18.80;6.53;;;;;;;31.74;37.69;99374.20;2096902;85;21024;-66
2021/06/17 09:12:26;;;;;;;21.25;7.03;;;;;;;32.01;37.21;99378.06;2096778;85;20972;-67
2021/06/17 09:15:26;;;;;;;20.52;7.30;;;;;;;32.27;36.54;99373.82;2096764;85;21640;-70
2021/06/17 09:18:27;;;;;;;20.32;6.85;;;;;;;32.61;37.08;99372.98;2096811;85;21511;-71
2021/06/17 09:21:28;;;;;;;18.02;6.70;;;;;;;32.75;35.10;99363.37;2096840;85;21464;-68
2021/06/17 09:24:28;;;;;;;20.30;7.20;;;;;;;32.54;36.36;99370.88;2095527;85;21625;-78
2021/06/17 09:27:29;;;;;;;21.70;7.50;;;;;;;32.67;36.65;99367.70;2095085;85;21013;-67
2021/06/17 09:30:30;;;;;;;22.35;7.40;;;;;;;32.34;34.92;99368.85;2095028;85;21033;-79
2021/06/17 09:33:31;;;;;;;19.32;7.08;;;;;;;32.24;36.12;99370.20;2095108;85;21022;-66
2021/06/17 09:36:32;;;;;;;18.48;6.83;;;;;;;32.43;35.93;99366.99;2094979;85;21034;-67
2021/06/17 09:39:33;;;;;;;;;;;;;;;32.60;35.62;99365.07;2097533;85;21026;-78
2021/06/17 09:42:34;;;;;;;19.27;6.70;;;;;;;32.89;35.07;99362.16;2070610;86;20119;-66
2021/06/17 09:45:35;;;;;;;17.17;6.10;;;;;;;32.58;33.81;99355.77;2152705;83;21032;-67
2021/06/17 09:48:35;;;;;;;20.12;6.53;;;;;;;31.80;35.07;99358.41;2152824;83;21004;-66
2021/06/17 09:51:38;;;;;;;18.73;6.75;;;;;;;31.59;35.42;99356.37;2152652;83;21071;-67
2021/06/17 09:54:40;;;;;;;20.48;6.60;;;;;;;31.80;35.89;99348.09;2152468;83;21529;-67
2021/06/17 09:57:43;;;;;;;19.35;6.62;;;;;;;31.42;34.19;99349.74;2152459;83;20981;-67
2021/06/17 10:00:44;;;;;;;19.00;7.12;;;;;;;31.38;35.88;99358.02;2125528;83;21503;-67
2021/06/17 10:03:45;;;;;;;16.07;6.10;;;;;;;32.08;35.91;99350.36;2152209;83;21071;-66
2021/06/17 10:06:46;;;;;;;19.27;6.35;;;;;;;32.52;34.24;99349.06;2152845;83;20983;-70
2021/06/17 10:09:46;;;;;;;22.17;8.05;;;;;;;32.46;33.87;99343.47;2152779;83;21030;-67
2021/06/17 10:12:47;;;;;;;19.07;6.75;;;;;;;31.69;34.46;99346.91;2152699;83;20968;-77
2021/06/17 10:15:47;;;;;;;18.50;6.60;;;;;;;31.80;34.01;99342.67;2152867;83;21478;-76
2021/06/17 10:18:48;;;;;;;19.62;6.60;;;;;;;32.26;34.91;99338.77;2152922;83;20985;-67
2021/06/17 10:21:52;;;;;;;;;;;;;;;32.72;35.04;99344.27;2155350;83;21016;-67
2021/06/17 10:24:52;;;;;;;18.20;6.75;;;;;;;33.22;34.04;99336.50;2159778;81;20099;-67
2021/06/17 10:30:56;;;;;;;17.07;6.78;;;;;;;33.49;33.91;99332.88;2137318;82;20099;-67
2021/06/17 10:33:56;;;;;;;;;;;;;;;32.92;33.51;99333.18;2170022;82;21467;-72
2021/06/17 10:36:57;;;;;;;20.50;7.25;;;;;;;32.38;33.89;99332.08;2167724;82;20122;-67
2021/06/17 10:40:02;;;;;;;19.85;7.47;;;;;;;32.05;34.40;99340.81;2167808;82;21049;-67
2021/06/17 10:43:00;;;;;;;21.00;7.10;;;;;;;31.83;34.60;99334.92;2138658;82;20996;-68
2021/06/17 10:46:01;;;;;;;18.98;6.92;;;;;;;31.62;34.79;99332.03;2167692;82;20950;-67
2021/06/17 10:49:02;;;;;;;19.07;7.47;;;;;;;31.43;35.40;99331.94;2167521;82;20961;-67
2021/06/17 10:52:02;;;;;;;16.27;6.58;;;;;;;31.17;35.08;99325.30;2167659;82;21460;-67
2021/06/17 10:55:03;;;;;;;18.67;7.37;;;;;;;31.82;35.49;99321.05;2167559;82;20977;-81
2021/06/17 10:58:08;;;;;;;18.73;6.67;;;;;;;32.55;34.98;99315.50;2167694;82;20965;-66
2021/06/17 11:01:06;;;;;;;20.68;6.92;;;;;;;33.02;34.20;99309.55;2138513;82;21016;-81
2021/06/17 11:04:07;;;;;;;19.42;6.92;;;;;;;33.36;33.66;99311.84;2167639;82;20968;-67
2021/06/17 11:07:07;;;;;;;17.05;6.70;;;;;;;33.26;32.97;99305.59;2167862;82;21456;-73
2021/06/17 11:10:08;;;;;;;19.70;6.78;;;;;;;32.97;31.86;99303.45;2167683;82;21508;-67
2021/06/17 11:13:09;;;;;;;18.57;6.97;;;;;;;32.24;31.47;99304.23;2167483;82;20954;-77
2021/06/17 11:16:09;;;;;;;17.25;6.33;;;;;;;31.81;32.59;99301.78;2167537;82;20981;-75
2021/06/17 11:19:12;;;;;;;17.23;6.60;;;;;;;31.44;31.45;99294.28;2167648;82;20993;-79
2021/06/17 11:22:12;;;;;;;20.57;6.67;;;;;;;31.13;33.04;99295.09;2138743;82;21258;-67
2021/06/17 11:25:12;;;;;;;20.77;6.50;;;;;;;31.66;33.80;99298.02;2167612;82;20982;-69
2021/06/17 11:28:14;;;;;;;19.30;7.00;;;;;;;32.02;33.97;99292.94;2167201;82;21072;-67
2021/06/17 11:31:14;;;;;;;;;;;;;;;31.82;33.04;99299.36;2170157;82;20997;-79
2021/06/17 11:34:15;;;;;;;16.70;6.27;;;;;;;31.46;32.45;99305.44;2167772;82;20096;-68
2021/06/17 11:37:15;;;;;;;17.42;6.37;;;;;;;31.54;32.56;99301.94;2167677;82;21056;-67
2021/06/17 11:40:16;;;;;;;16.93;6.62;;;;;;;31.43;32.98;99296.70;2167691;82;20977;-67
2021/06/17 11:43:16;;;;;;;16.40;6.73;;;;;;;31.12;33.43;99296.16;2167948;82;20961;-82
2021/06/17 11:46:16;;;;;;;18.70;6.80;;;;;;;30.95;33.42;99303.06;2168184;82;21060;-78
2021/06/17 11:49:17;;;;;;;19.00;6.50;;;;;;;31.51;32.40;99296.14;2167923;82;21181;-68
2021/06/17 11:52:19;;;;;;;15.28;6.05;;;;;;;31.47;32.34;99297.09;2167800;82;21542;-67
2021/06/17 11:55:20;;;;;;;17.57;6.55;;;;;;;30.91;32.40;99295.91;2167477;82;21562;-67
2021/06/17 11:58:21;;;;;;;19.60;6.72;;;;;;;30.41;33.23;99296.44;2167810;82;20992;-67
2021/06/17 12:01:22;;;;;;;17.85;6.28;;;;;;;30.23;33.70;99295.23;2167793;82;20993;-76
2021/06/17 12:04:22;;;;;;;21.20;7.03;;;;;;;30.09;35.04;99287.36;2167952;82;21547;-66
2021/06/17 12:07:25;;;;;;;20.17;6.87;;;;;;;30.00;34.36;99285.39;2167795;82;20981;-77
2021/06/17 12:10:25;;;;;;;17.02;6.35;;;;;;;29.78;34.99;99294.19;2138715;82;21020;-67
2021/06/17 12:13:26;;;;;;;18.33;6.97;;;;;;;29.68;35.40;99294.59;2167775;82;21570;-80
2021/06/17 12:16:27;;;;;;;18.02;6.85;;;;;;;29.57;35.30;99293.84;2167773;82;22015;-66
2021/06/17 12:19:27;;;;;;;18.77;6.62;;;;;;;29.61;35.27;99294.61;2167348;82;21048;-66
2021/06/17 12:22:28;;;;;;;17.57;6.50;;;;;;;30.40;35.08;99284.80;2167580;82;21024;-66
2021/06/17 12:25:28;;;;;;;21.30;7.87;;;;;;;30.70;34.83;99282.98;2173955;82;21081;-80
2021/06/17 12:28:29;;;;;;;16.30;6.60;;;;;;;31.02;35.59;99284.94;2177730;82;21001;-67
2021/06/17 12:31:32;;;;;;;19.57;6.70;;;;;;;31.59;35.26;99282.33;2177826;82;21033;-79
2021/06/17 12:34:32;;;;;;;19.57;6.22;;;;;;;32.20;34.56;99274.55;2152897;82;21012;-67
2021/06/17 12:37:32;;;;;;;20.02;6.30;;;;;;;32.80;35.01;99274.73;2177866;82;20997;-66
2021/06/17 12:40:33;;;;;;;18.70;6.40;;;;;;;33.29;33.21;99273.91;2177999;82;21547;-67
2021/06/17 12:43:33;;;;;;;18.37;6.35;;;;;;;32.87;32.98;99276.52;2177978;82;21008;-79
2021/06/17 12:52:39;;;;;;;17.25;5.75;;;;;;;33.14;29.64;99274.28;2152949;82;20999;-77
2021/06/17 12:55:40;;;;;;;16.15;5.72;;;;;;;32.78;31.13;99271.39;2177930;82;21017;-67
2021/06/17 12:58:41;;;;;;;18.57;6.53;;;;;;;32.30;32.27;99277.58;2177947;82;21024;-74
2021/06/17 13:01:41;;;;;;;20.95;7.83;;;;;;;31.92;32.29;99280.73;2177825;82;20937;-67
2021/06/17 13:04:42;;;;;;;15.88;6.12;;;;;;;31.55;33.20;99284.63;2178085;82;21522;-76
2021/06/17 13:07:42;;;;;;;17.32;5.97;;;;;;;31.66;33.69;99283.65;2177489;82;21074;-66
2021/06/17 13:10:43;;;;;;;18.12;6.22;;;;;;;31.71;32.76;99275.70;2178085;82;20957;-72
2021/06/17 13:13:43;;;;;;;18.37;6.40;;;;;;;31.74;32.93;99272.53;2178072;82;20981;-67
2021/06/17 13:16:44;;;;;;;17.17;5.95;;;;;;;32.50;33.31;99271.09;2177659;82;21064;-66
2021/06/17 13:19:44;;;;;;;15.60;5.72;;;;;;;33.13;31.93;99266.67;2177962;82;20969;-67
2021/06/17 13:22:45;;;;;;;;;;;;;;;32.99;30.89;99266.02;2180406;82;21495;-69
2021/06/17 13:25:45;;;;;;;18.20;5.90;;;;;;;32.94;30.53;99260.97;2177841;82;20420;-66
2021/06/17 13:28:46;;;;;;;18.02;6.03;;;;;;;32.50;31.49;99265.66;2177801;82;20996;-67
2021/06/17 13:31:50;;;;;;;14.40;5.78;;;;;;;32.14;31.61;99262.72;2177814;82;20981;-67
2021/06/17 13:34:49;;;;;;;16.77;5.95;;;;;;;31.79;31.85;99261.84;2152756;82;21032;-67
2021/06/17 13:37:50;;;;;;;18.57;5.90;;;;;;;31.57;31.53;99264.11;2177944;82;21467;-65
2021/06/17 13:40:51;;;;;;;15.68;5.80;;;;;;;31.34;31.75;99261.42;2177616;82;21483;-66
2021/06/17 13:43:51;;;;;;;15.18;5.53;;;;;;;31.71;31.51;99271.63;2177716;82;21023;-67
2021/06/17 13:46:52;;;;;;;16.32;5.42;;;;;;;32.16;30.28;99264.66;2177823;82;20964;-66
2021/06/17 13:49:52;;;;;;;18.00;5.87;;;;;;;32.69;31.05;99262.45;2177884;82;20987;-66
2021/06/17 13:52:52;;;;;;;;;;;;;;;33.35;30.12;99259.89;2180606;82;20976;-78
2021/06/17 13:55:53;;;;;;;17.90;5.78;;;;;;;33.59;28.92;99253.47;2178064;82;20107;-67
2021/06/17 13:58:53;;;;;;;;;;;;;;;33.64;28.00;99260.38;2180273;82;21447;-67
2021/06/17 14:01:54;;;;;;;18.27;6.33;;;;;;;33.69;29.06;99256.97;2177911;82;20135;-67
2021/06/17 14:04:54;;;;;;;;;;;;;;;33.96;28.57;99254.63;2180385;82;20991;-67
2021/06/17 14:07:56;;;;;;;17.33;5.20;;;;;;;34.07;28.58;99261.14;2178013;82;20130;-67
2021/06/17 14:10:57;;;;;;;15.23;5.33;;;;;;;34.29;26.41;99260.02;2177711;82;21082;-67
2021/06/17 14:13:58;;;;;;;;;;;;;;;34.40;28.71;99254.83;2179910;82;21024;-67